createdAt,value
2022-12-26T00:00:17.372Z,34.55
2022-12-26T00:02:48.558Z,39.05
2022-12-26T00:05:22.537Z,39.35
2022-12-26T00:07:54.973Z,35.45
2022-12-26T00:10:26.234Z,36.88
2022-12-26T00:13:40.194Z,33.88
2022-12-26T00:15:29.398Z,37.83
2022-12-26T00:18:01.007Z,35.92
2022-12-26T00:20:33.948Z,34.90
2022-12-26T00:23:05.074Z,31.73
2022-12-26T00:25:37.198Z,35.55
2022-12-26T00:28:08.645Z,44.10
2022-12-26T00:30:41.129Z,33.23
2022-12-26T00:33:12.557Z,64.95
2022-12-26T00:35:44.381Z,275.82
2022-12-26T00:38:16.771Z,105.37
2022-12-26T00:40:49.241Z,31.95
2022-12-26T00:43:20.065Z,40.67
2022-12-26T00:45:54.490Z,33.42
2022-12-26T00:48:25.279Z,30.43
2022-12-26T00:50:56.272Z,36.50
2022-12-26T00:53:27.609Z,26.60
2022-12-26T00:56:00.857Z,28.92
2022-12-26T00:58:32.101Z,27.85
2022-12-26T01:01:20.192Z,26.57
2022-12-26T01:03:54.080Z,28.23
2022-12-26T01:06:25.417Z,34.15
2022-12-26T01:08:56.539Z,30.90
2022-12-26T01:11:46.585Z,25.35
2022-12-26T01:14:19.766Z,26.97
2022-12-26T01:16:55.924Z,25.17
2022-12-26T01:19:26.975Z,27.43
2022-12-26T01:21:58.458Z,36.33
2022-12-26T01:24:29.373Z,29.80
2022-12-26T01:27:00.572Z,26.23
2022-12-26T01:29:33.459Z,27.58
2022-12-26T01:32:07.638Z,21.60
2022-12-26T01:34:40.674Z,28.50
2022-12-26T01:37:12.474Z,22.27
2022-12-26T01:39:43.738Z,20.40
2022-12-26T01:42:20.286Z,23.62
2022-12-26T01:45:28.418Z,25.88
2022-12-26T01:48:17.338Z,24.63
2022-12-26T01:50:50.775Z,19.17
2022-12-26T01:53:35.873Z,24.18
2022-12-26T01:56:13.881Z,24.80
2022-12-26T01:58:53.801Z,25.35
2022-12-26T02:01:27.267Z,24.43
2022-12-26T02:04:15.925Z,21.68
2022-12-26T02:06:47.140Z,22.50
2022-12-26T02:09:18.900Z,22.17
2022-12-26T02:12:35.906Z,23.67
2022-12-26T02:14:31.032Z,19.12
2022-12-26T02:17:02.416Z,18.77
2022-12-26T02:19:39.180Z,20.55
2022-12-26T02:22:25.454Z,20.57
2022-12-26T02:25:26.937Z,18.48
2022-12-26T02:28:03.296Z,23.05
2022-12-26T02:30:55.087Z,21.55
2022-12-26T02:33:28.550Z,21.50
2022-12-26T02:36:18.598Z,20.10
2022-12-26T02:39:43.253Z,18.15
2022-12-26T02:42:24.647Z,24.10
2022-12-26T02:45:30.759Z,21.57
2022-12-26T02:48:09.897Z,23.90
2022-12-26T02:51:21.672Z,25.50
2022-12-26T02:54:35.305Z,20.43
2022-12-26T02:57:28.482Z,21.20
2022-12-26T03:00:22.225Z,22.42
2022-12-26T03:03:16.005Z,20.97
2022-12-26T03:06:12.627Z,38.58
2022-12-26T03:12:01.132Z,25.77
2022-12-26T03:14:52.992Z,19.42
2022-12-26T03:17:48.879Z,27.60
2022-12-26T03:20:28.316Z,23.20
2022-12-26T03:23:04.943Z,17.77
2022-12-26T03:26:13.857Z,18.23
2022-12-26T03:28:46.555Z,17.27
2022-12-26T03:31:20.014Z,13.93
2022-12-26T03:34:08.967Z,16.57
2022-12-26T03:36:57.465Z,13.80
2022-12-26T03:40:08.492Z,16.40
2022-12-26T03:43:08.626Z,14.38
2022-12-26T03:46:02.104Z,15.88
2022-12-26T03:49:09.880Z,14.03
2022-12-26T03:52:16.344Z,13.38
2022-12-26T03:55:12.871Z,13.00
2022-12-26T04:00:52.998Z,15.68
2022-12-26T04:03:44.566Z,16.77
2022-12-26T04:06:38.203Z,13.30
2022-12-26T04:09:34.903Z,11.80
2022-12-26T04:12:26.371Z,10.75
2022-12-26T04:15:17.040Z,17.07
2022-12-26T04:18:16.945Z,13.03
2022-12-26T04:21:02.645Z,14.40
2022-12-26T04:24:03.090Z,10.85
2022-12-26T04:26:59.779Z,15.13
2022-12-26T04:29:48.745Z,14.93
2022-12-26T04:36:09.383Z,15.78
2022-12-26T04:39:08.811Z,13.05
2022-12-26T04:41:59.520Z,13.50
2022-12-26T04:44:34.021Z,11.88
2022-12-26T04:47:05.475Z,12.95
2022-12-26T04:50:04.564Z,12.25
2022-12-26T04:52:53.173Z,14.50
2022-12-26T04:55:24.082Z,13.30
2022-12-26T04:57:55.170Z,14.47
2022-12-26T05:00:29.357Z,14.45
2022-12-26T05:03:19.376Z,11.68
2022-12-26T05:06:10.519Z,11.40
2022-12-26T05:09:01.116Z,12.15
2022-12-26T05:11:33.949Z,16.55
2022-12-26T05:14:06.575Z,10.98
2022-12-26T05:16:55.431Z,15.05
2022-12-26T05:19:45.006Z,12.33
2022-12-26T05:22:33.968Z,17.90
2022-12-26T05:25:42.670Z,13.90
2022-12-26T05:28:36.988Z,10.23
2022-12-26T05:31:08.662Z,13.40
2022-12-26T05:34:00.187Z,16.77
2022-12-26T05:36:33.532Z,23.85
2022-12-26T05:39:04.537Z,14.60
2022-12-26T05:41:38.954Z,10.65
2022-12-26T05:44:10.768Z,14.28
2022-12-26T05:46:43.592Z,13.50
2022-12-26T05:49:15.188Z,14.58
2022-12-26T05:51:49.191Z,11.25
2022-12-26T05:54:20.206Z,13.88
2022-12-26T05:56:51.493Z,11.48
2022-12-26T05:59:25.280Z,11.55
2022-12-26T06:01:56.770Z,12.45
2022-12-26T06:04:33.780Z,12.20
2022-12-26T06:07:05.281Z,13.22
2022-12-26T06:09:36.587Z,12.50
2022-12-26T06:12:08.430Z,12.03
2022-12-26T06:14:40.012Z,13.13
2022-12-26T06:17:11.660Z,15.30
2022-12-26T06:19:46.730Z,11.08
2022-12-26T06:22:15.104Z,11.20
2022-12-26T06:24:46.315Z,10.68
2022-12-26T06:27:17.442Z,12.30
2022-12-26T06:29:48.920Z,11.57
2022-12-26T06:32:20.596Z,13.90
2022-12-26T06:34:51.964Z,9.63
2022-12-26T06:37:23.066Z,8.60
2022-12-26T06:39:57.605Z,13.70
2022-12-26T06:42:29.692Z,10.80
2022-12-26T06:45:01.042Z,11.80
2022-12-26T06:47:32.731Z,10.55
2022-12-26T06:50:04.908Z,10.98
2022-12-26T06:52:35.817Z,10.00
2022-12-26T06:55:07.201Z,12.40
2022-12-26T06:57:38.523Z,9.40
2022-12-26T07:00:10.386Z,10.28
2022-12-26T07:02:41.565Z,11.25
2022-12-26T07:05:13.389Z,11.50
2022-12-26T07:07:44.690Z,12.45
2022-12-26T07:10:19.345Z,11.12
2022-12-26T07:12:52.461Z,11.03
2022-12-26T07:15:23.247Z,10.15
2022-12-26T07:17:55.519Z,9.58
2022-12-26T07:20:28.311Z,10.05
2022-12-26T07:22:59.566Z,11.73
2022-12-26T07:25:31.245Z,11.57
2022-12-26T07:28:02.130Z,10.28
2022-12-26T07:30:33.179Z,9.35
2022-12-26T07:33:04.177Z,9.05
2022-12-26T07:35:35.910Z,8.75
2022-12-26T07:38:07.086Z,9.40
2022-12-26T07:40:38.022Z,12.15
2022-12-26T07:43:12.971Z,12.00
2022-12-26T07:45:46.188Z,10.08
2022-12-26T07:48:17.279Z,11.48
2022-12-26T07:50:48.546Z,13.35
2022-12-26T07:53:20.173Z,10.28
2022-12-26T07:55:53.800Z,10.65
2022-12-26T07:58:29.621Z,10.68
2022-12-26T08:01:04.820Z,13.32
2022-12-26T08:03:36.709Z,12.05
2022-12-26T08:06:07.909Z,12.10
2022-12-26T08:08:38.708Z,12.90
2022-12-26T08:11:11.212Z,10.53
2022-12-26T08:13:42.647Z,12.47
2022-12-26T08:16:15.832Z,10.43
2022-12-26T08:18:48.970Z,11.22
2022-12-26T08:21:20.191Z,11.22
2022-12-26T08:23:51.126Z,12.95
2022-12-26T08:26:23.733Z,12.90
2022-12-26T08:28:55.682Z,11.30
2022-12-26T08:31:27.128Z,13.88
2022-12-26T08:34:00.908Z,11.45
2022-12-26T08:36:32.207Z,13.13
2022-12-26T08:39:03.287Z,10.80
2022-12-26T08:41:34.175Z,13.32
2022-12-26T08:46:37.753Z,13.48
2022-12-26T08:49:09.049Z,12.37
2022-12-26T08:51:41.068Z,11.40
2022-12-26T08:54:13.899Z,8.93
2022-12-26T08:56:45.675Z,11.25
2022-12-26T08:59:17.986Z,10.28
2022-12-26T09:01:49.288Z,9.28
2022-12-26T09:04:21.058Z,9.80
2022-12-26T09:06:52.121Z,15.90
2022-12-26T09:09:23.043Z,13.60
2022-12-26T09:11:55.130Z,11.20
2022-12-26T09:14:26.425Z,11.15
2022-12-26T09:16:57.410Z,11.20
2022-12-26T09:19:29.577Z,10.72
2022-12-26T09:22:18.484Z,9.50
2022-12-26T09:24:49.617Z,11.70
2022-12-26T09:27:20.772Z,10.58
2022-12-26T09:29:52.011Z,12.35
2022-12-26T09:32:22.909Z,10.43
2022-12-26T09:34:54.131Z,12.37
2022-12-26T09:37:25.069Z,10.60
2022-12-26T09:39:56.177Z,10.90
2022-12-26T09:42:50.636Z,11.38
2022-12-26T09:45:24.192Z,13.32
2022-12-26T09:48:00.393Z,13.72
2022-12-26T09:50:37.104Z,12.55
2022-12-26T09:53:23.447Z,14.07
2022-12-26T09:55:57.019Z,13.28
2022-12-26T09:58:51.285Z,12.13
2022-12-26T10:01:24.874Z,11.97
2022-12-26T10:03:58.347Z,16.52
2022-12-26T10:06:32.156Z,15.90
2022-12-26T10:09:31.464Z,14.83
2022-12-26T10:12:05.092Z,15.72
2022-12-26T10:14:44.363Z,14.43
2022-12-26T10:17:32.968Z,18.37
2022-12-26T10:20:12.675Z,13.00
2022-12-26T10:23:04.242Z,18.37
2022-12-26T10:25:46.916Z,18.12
2022-12-26T10:28:26.329Z,16.05
2022-12-26T10:31:00.564Z,15.38
2022-12-26T10:33:41.909Z,12.33
2022-12-26T10:36:33.499Z,15.00
2022-12-26T10:39:07.012Z,15.30
2022-12-26T10:41:40.363Z,14.80
2022-12-26T10:44:14.628Z,16.25
2022-12-26T10:46:48.351Z,15.00
2022-12-26T10:49:22.475Z,19.67
2022-12-26T10:51:57.903Z,17.37
2022-12-26T10:54:31.372Z,22.22
2022-12-26T10:57:03.132Z,23.35
2022-12-26T10:59:42.530Z,28.17
2022-12-26T11:02:33.577Z,28.60
2022-12-26T11:05:27.191Z,28.30
2022-12-26T11:07:47.848Z,33.95
2022-12-26T11:10:21.503Z,31.52
2022-12-26T11:13:01.242Z,25.90
2022-12-26T11:15:44.040Z,27.60
2022-12-26T11:18:26.533Z,29.70
2022-12-26T11:20:57.501Z,34.20
2022-12-26T11:23:32.074Z,30.25
2022-12-26T11:26:04.592Z,34.23
2022-12-26T11:28:40.369Z,32.83
2022-12-26T11:31:14.067Z,31.05
2022-12-26T11:33:52.346Z,35.63
2022-12-26T11:36:25.881Z,33.67
2022-12-26T11:38:59.509Z,36.15
2022-12-26T11:41:38.258Z,35.78
2022-12-26T11:44:15.782Z,36.10
2022-12-26T11:46:56.181Z,37.48
2022-12-26T11:49:33.198Z,33.65
2022-12-26T11:52:06.950Z,35.83
2022-12-26T11:54:41.661Z,37.73
2022-12-26T11:57:21.684Z,40.75
2022-12-26T11:59:54.976Z,41.77
2022-12-26T12:02:30.807Z,43.80
2022-12-26T12:05:09.402Z,37.70
2022-12-26T12:07:59.360Z,34.50
2022-12-26T12:11:01.473Z,35.92
2022-12-26T12:13:50.708Z,35.03
2022-12-26T12:16:34.142Z,40.28
2022-12-26T12:19:32.291Z,34.75
2022-12-26T12:22:15.926Z,33.70
2022-12-26T12:25:01.209Z,31.27
2022-12-26T12:27:46.803Z,32.17
2022-12-26T12:30:34.304Z,26.40
2022-12-26T12:33:25.916Z,28.83
2022-12-26T12:36:05.928Z,25.77
2022-12-26T12:38:42.659Z,27.62
2022-12-26T12:41:36.108Z,28.70
2022-12-26T12:44:29.439Z,29.37
2022-12-26T12:47:20.062Z,31.62
2022-12-26T12:50:08.997Z,31.27
2022-12-26T12:52:49.396Z,33.48
2022-12-26T12:55:35.023Z,36.63
2022-12-26T12:58:17.460Z,31.07
2022-12-26T13:00:50.949Z,31.30
2022-12-26T13:03:24.711Z,33.92
2022-12-26T13:06:16.793Z,31.05
2022-12-26T13:08:58.967Z,30.48
2022-12-26T13:11:45.214Z,37.42
2022-12-26T13:14:18.944Z,36.73
2022-12-26T13:16:55.618Z,36.15
2022-12-26T13:19:32.264Z,39.75
2022-12-26T13:22:09.257Z,35.20
2022-12-26T13:24:50.640Z,39.40
2022-12-26T13:30:22.479Z,37.28
2022-12-26T13:32:53.564Z,33.02
2022-12-26T13:35:55.990Z,34.73
2022-12-26T13:38:32.735Z,32.00
2022-12-26T13:41:07.090Z,31.93
2022-12-26T13:43:58.661Z,38.10
2022-12-26T13:46:46.684Z,38.48
2022-12-26T13:49:41.243Z,39.67
2022-12-26T13:52:27.320Z,42.27
2022-12-26T13:54:54.757Z,41.37
2022-12-26T13:57:43.972Z,50.65
2022-12-26T14:00:24.493Z,35.43
2022-12-26T14:03:18.592Z,37.45
2022-12-26T14:06:03.749Z,38.70
2022-12-26T14:08:55.192Z,33.07
2022-12-26T14:11:27.723Z,32.80
2022-12-26T14:14:17.271Z,33.55
2022-12-26T14:16:56.888Z,35.65
2022-12-26T14:19:55.082Z,33.90
2022-12-26T14:22:43.472Z,39.53
2022-12-26T14:25:35.439Z,38.10
2022-12-26T14:28:20.991Z,36.33
2022-12-26T14:30:57.497Z,40.65
2022-12-26T14:33:31.260Z,38.02
2022-12-26T14:36:45.411Z,37.98
2022-12-26T14:39:23.208Z,36.53
2022-12-26T14:42:41.185Z,35.85
2022-12-26T14:45:32.999Z,40.00
2022-12-26T14:48:08.575Z,36.55
2022-12-26T14:50:59.499Z,37.53
2022-12-26T14:53:38.535Z,34.33
2022-12-26T14:56:24.190Z,38.65
2022-12-26T14:58:58.801Z,38.88
2022-12-26T15:01:37.346Z,34.60
2022-12-26T15:04:13.326Z,32.40
2022-12-26T15:07:16.893Z,33.53
2022-12-26T15:10:13.918Z,36.05
2022-12-26T15:12:59.676Z,34.25
2022-12-26T15:16:13.024Z,41.00
2022-12-26T15:19:19.953Z,33.10
2022-12-26T15:21:56.000Z,39.55
2022-12-26T15:27:38.163Z,32.40
2022-12-26T15:30:27.442Z,38.00
2022-12-26T15:33:19.608Z,41.42
2022-12-26T15:36:09.361Z,45.73
2022-12-26T15:38:51.904Z,43.40
2022-12-26T15:41:43.952Z,40.80
2022-12-26T15:44:23.357Z,41.48
2022-12-26T15:47:17.537Z,40.45
2022-12-26T15:50:00.489Z,39.35
2022-12-26T15:52:56.810Z,40.10
2022-12-26T15:55:49.737Z,37.58
2022-12-26T15:58:41.782Z,42.62
2022-12-26T16:01:14.161Z,37.75
2022-12-26T16:03:58.150Z,38.63
2022-12-26T16:06:27.985Z,44.55
2022-12-26T16:09:04.595Z,40.03
2022-12-26T16:11:48.783Z,44.03
2022-12-26T16:14:40.070Z,40.65
2022-12-26T16:17:19.520Z,36.30
2022-12-26T16:19:55.265Z,40.63
2022-12-26T16:22:47.619Z,39.10
2022-12-26T16:25:25.123Z,36.95
2022-12-26T16:28:01.748Z,34.73
2022-12-26T16:30:37.668Z,40.08
2022-12-26T16:33:09.886Z,37.98
2022-12-26T16:35:44.557Z,41.73
2022-12-26T16:38:22.748Z,36.83
2022-12-26T16:40:59.267Z,41.55
2022-12-26T16:43:41.259Z,39.92
2022-12-26T16:46:13.934Z,43.58
2022-12-26T16:48:45.462Z,40.55
2022-12-26T16:51:47.093Z,43.87
2022-12-26T16:54:26.542Z,44.03
2022-12-26T16:57:08.559Z,45.90
2022-12-26T16:59:47.578Z,47.10
2022-12-26T17:02:22.276Z,48.17
2022-12-26T17:04:58.567Z,50.35
2022-12-26T17:07:28.351Z,50.30
2022-12-26T17:10:01.555Z,52.50
2022-12-26T17:12:37.780Z,51.95
2022-12-26T17:15:10.468Z,51.40
2022-12-26T17:17:43.682Z,52.83
2022-12-26T17:20:30.517Z,49.48
2022-12-26T17:23:02.575Z,47.38
2022-12-26T17:25:35.162Z,52.90
2022-12-26T17:28:15.809Z,54.40
2022-12-26T17:30:52.584Z,51.50
2022-12-26T17:33:26.304Z,49.15
2022-12-26T17:38:42.955Z,48.87
2022-12-26T17:41:16.512Z,51.92
2022-12-26T17:43:49.035Z,49.67
2022-12-26T17:46:21.132Z,47.65
2022-12-26T17:48:52.031Z,49.67
2022-12-26T17:51:23.053Z,46.35
2022-12-26T17:53:54.466Z,44.48
2022-12-26T17:56:28.003Z,44.50
2022-12-26T17:58:58.826Z,41.80
2022-12-26T18:01:29.742Z,43.73
2022-12-26T18:04:01.803Z,39.50
2022-12-26T18:06:32.778Z,44.75
2022-12-26T18:09:03.883Z,43.80
2022-12-26T18:11:35.205Z,35.20
2022-12-26T18:14:06.052Z,42.70
2022-12-26T18:16:36.925Z,34.98
2022-12-26T18:19:07.955Z,34.85
2022-12-26T18:21:38.883Z,38.38
2022-12-26T18:24:10.489Z,37.53
2022-12-26T18:26:41.533Z,36.95
2022-12-26T18:29:13.736Z,38.55
2022-12-26T18:31:44.788Z,36.28
2022-12-26T18:34:15.789Z,37.65
2022-12-26T18:36:47.986Z,33.00
2022-12-26T18:39:19.725Z,34.38
2022-12-26T18:41:50.727Z,33.13
2022-12-26T18:44:21.750Z,32.50
2022-12-26T18:46:52.957Z,31.48
2022-12-26T18:49:23.870Z,35.65
2022-12-26T18:51:54.701Z,33.75
2022-12-26T18:54:25.878Z,34.55
2022-12-26T18:56:56.905Z,35.13
2022-12-26T18:59:28.055Z,32.73
2022-12-26T19:01:59.044Z,34.80
2022-12-26T19:04:29.971Z,33.50
2022-12-26T19:07:00.887Z,33.90
2022-12-26T19:09:31.748Z,32.15
2022-12-26T19:12:02.754Z,35.80
2022-12-26T19:14:33.609Z,30.75
2022-12-26T19:17:04.470Z,34.78
2022-12-26T19:19:35.371Z,34.10
2022-12-26T19:22:06.716Z,33.02
2022-12-26T19:24:37.770Z,37.90
2022-12-26T19:27:08.608Z,33.67
2022-12-26T19:29:39.738Z,31.65
2022-12-26T19:32:10.660Z,35.10
2022-12-26T19:34:41.489Z,38.85
2022-12-26T19:37:12.475Z,30.62
2022-12-26T19:39:43.501Z,32.95
2022-12-26T19:42:14.402Z,29.98
2022-12-26T19:44:45.685Z,32.70
2022-12-26T19:47:16.568Z,30.35
2022-12-26T19:49:47.761Z,33.00
2022-12-26T19:52:18.714Z,27.20
2022-12-26T19:54:49.645Z,25.77
2022-12-26T19:57:20.589Z,28.20
2022-12-26T19:59:51.729Z,29.07
2022-12-26T20:02:22.921Z,31.62
2022-12-26T20:04:54.085Z,27.75
2022-12-26T20:07:24.981Z,26.65
2022-12-26T20:10:15.157Z,26.87
2022-12-26T20:12:46.217Z,25.60
2022-12-26T20:15:17.246Z,30.90
2022-12-26T20:17:48.254Z,29.07
2022-12-26T20:20:19.316Z,31.75
2022-12-26T20:22:53.166Z,32.38
2022-12-26T20:25:22.717Z,28.90
2022-12-26T20:27:53.573Z,62.25
2022-12-26T20:30:24.536Z,32.15
2022-12-26T20:32:55.460Z,34.05
2022-12-26T20:35:26.394Z,31.27
2022-12-26T20:37:57.306Z,34.05
2022-12-26T20:40:28.171Z,29.40
2022-12-26T20:42:58.982Z,28.57
2022-12-26T20:45:29.782Z,28.83
2022-12-26T20:48:00.666Z,32.30
2022-12-26T20:50:31.559Z,29.35
2022-12-26T20:53:02.488Z,28.67
2022-12-26T20:55:33.307Z,30.00
2022-12-26T20:58:04.238Z,31.97
2022-12-26T21:00:35.057Z,26.00
2022-12-26T21:03:06.070Z,26.90
2022-12-26T21:05:37.058Z,30.02
2022-12-26T21:08:28.185Z,24.92
2022-12-26T21:10:59.139Z,25.05
2022-12-26T21:13:30.090Z,25.82
2022-12-26T21:16:06.821Z,22.67
2022-12-26T21:18:34.665Z,25.32
2022-12-26T21:21:17.069Z,36.63
2022-12-26T21:23:48.604Z,26.45
2022-12-26T21:26:19.847Z,26.97
2022-12-26T21:28:50.873Z,24.67
2022-12-26T21:31:21.820Z,23.98
2022-12-26T21:33:53.014Z,27.85
2022-12-26T21:36:24.137Z,26.48
2022-12-26T21:38:55.518Z,27.52
2022-12-26T21:41:27.322Z,28.80
2022-12-26T21:43:58.343Z,30.43
2022-12-26T21:46:28.571Z,25.77
2022-12-26T21:48:59.551Z,31.02
2022-12-26T21:51:30.800Z,30.25
2022-12-26T21:54:02.897Z,29.25
2022-12-26T21:56:33.755Z,32.65
2022-12-26T21:59:26.763Z,33.95
2022-12-26T22:01:57.852Z,33.67
2022-12-26T22:04:31.338Z,34.67
2022-12-26T22:07:02.170Z,33.55
2022-12-26T22:09:33.129Z,28.00
2022-12-26T22:12:21.664Z,27.85
2022-12-26T22:14:52.490Z,25.25
2022-12-26T22:17:23.430Z,28.20
2022-12-26T22:19:54.324Z,24.70
2022-12-26T22:22:25.188Z,23.70
2022-12-26T22:24:56.208Z,25.62
2022-12-26T22:27:27.028Z,23.70
2022-12-26T22:29:57.962Z,24.15
2022-12-26T22:32:29.037Z,25.48
2022-12-26T22:34:59.870Z,25.10
2022-12-26T22:37:30.777Z,25.68
2022-12-26T22:40:01.612Z,29.45
2022-12-26T22:42:33.431Z,35.98
2022-12-26T22:45:04.507Z,29.60
2022-12-26T22:47:35.343Z,29.65
2022-12-26T22:50:06.387Z,32.38
2022-12-26T22:52:37.217Z,27.82
2022-12-26T22:55:09.068Z,29.50
2022-12-26T23:00:34.355Z,28.98
2022-12-26T23:03:05.450Z,31.87
2022-12-26T23:05:37.230Z,32.50
2022-12-26T23:08:09.052Z,28.85
2022-12-26T23:10:40.854Z,27.55
2022-12-26T23:13:14.179Z,29.72
2022-12-26T23:15:59.229Z,28.92
2022-12-26T23:18:58.753Z,28.70
2022-12-26T23:21:41.579Z,29.95
2022-12-26T23:24:15.460Z,29.85
2022-12-26T23:26:51.123Z,28.15
2022-12-26T23:29:44.200Z,32.13
2022-12-26T23:32:15.178Z,36.25
2022-12-26T23:34:47.838Z,28.00
2022-12-26T23:37:18.524Z,33.90
2022-12-26T23:39:49.472Z,40.17
2022-12-26T23:42:20.495Z,32.48
2022-12-26T23:44:51.498Z,36.15
2022-12-26T23:47:23.633Z,42.35
2022-12-26T23:49:54.457Z,45.80
2022-12-26T23:52:29.996Z,46.50
2022-12-26T23:54:57.766Z,55.28
2022-12-26T23:57:28.987Z,50.85
